Time;durP1;ratioP1;P1;durP2;ratioP2;P2;SDS_P1;SDS_P2;PMS_P1;PMS_P2;Temp;Humidity;BMP_temperature;BMP_pressure;BME280_temperature;BME280_humidity;BME280_pressure;Samples;Min_cycle;Max_cycle;Signal;HPM_P1;HPM_P2
2021/05/27 00:02:06;;;;;;;1.40;0.93;;;;;;;;;;5048984;28;20396;-75
2021/05/27 00:04:31;;;;;;;1.00;0.90;;;;;;;;;;5049555;28;20024;-73
2021/05/27 00:06:57;;;;;;;2.38;0.77;;;;;;;;;;5052190;28;20123;-73
2021/05/27 00:09:22;;;;;;;1.38;0.90;;;;;;;;;;5063712;28;20088;-74
2021/05/27 00:11:47;;;;;;;3.00;1.20;;;;;;;;;;5055749;28;20043;-75
2021/05/27 00:14:12;;;;;;;2.17;0.88;;;;;;;;;;5057277;28;20070;-73
2021/05/27 00:16:37;;;;;;;1.83;1.15;;;;;;;;;;5049506;28;20116;-74
2021/05/27 00:19:02;;;;;;;1.67;1.17;;;;;;;;;;5037199;28;20169;-75
2021/05/27 00:21:28;;;;;;;2.20;0.93;;;;;;;;;;5055322;28;20032;-73
2021/05/27 00:23:53;;;;;;;1.65;1.00;;;;;;;;;;5059132;28;20412;-75
2021/05/27 00:26:18;;;;;;;2.25;1.30;;;;;;;;;;5039079;28;20064;-74
2021/05/27 00:28:43;;;;;;;2.10;1.10;;;;;;;;;;5057596;28;20389;-74
2021/05/27 00:31:09;;;;;;;1.23;0.88;;;;;;;;;;5048341;28;20039;-75
2021/05/27 00:33:34;;;;;;;1.33;1.13;;;;;;;;;;5053512;28;20087;-75
2021/05/27 00:35:59;;;;;;;1.60;1.00;;;;;;;;;;5059392;28;20052;-75
2021/05/27 00:38:24;;;;;;;1.65;1.00;;;;;;;;;;5046933;28;20024;-75
2021/05/27 00:40:49;;;;;;;1.38;0.95;;;;;;;;;;5055114;28;20484;-75
2021/05/27 00:43:15;;;;;;;1.35;0.90;;;;;;;;;;5055627;28;20055;-76
2021/05/27 00:45:40;;;;;;;2.05;1.00;;;;;;;;;;5049230;28;20052;-74
2021/05/27 00:48:05;;;;;;;1.08;0.93;;;;;;;;;;5050139;28;20155;-74
2021/05/27 00:50:30;;;;;;;2.03;1.13;;;;;;;;;;5051926;28;20865;-74
2021/05/27 00:52:56;;;;;;;1.67;0.80;;;;;;;;;;5064100;28;20048;-75
2021/05/27 00:55:23;;;;;;;0.73;0.70;;;;;;;;;;5051010;28;20451;-76
2021/05/27 00:57:49;;;;;;;1.33;0.80;;;;;;;;;;5054239;28;20025;-74
2021/05/27 01:00:16;;;;;;;1.50;0.75;;;;;;;;;;5055571;28;20031;-75
2021/05/27 01:02:41;;;;;;;1.23;0.70;;;;;;;;;;5057423;28;20082;-76
2021/05/27 01:05:08;;;;;;;1.10;0.90;;;;;;;;;;5055793;28;20033;-76
2021/05/27 01:07:33;;;;;;;2.00;0.90;;;;;;;;;;5061627;28;20487;-75
2021/05/27 01:09:58;;;;;;;1.67;1.00;;;;;;;;;;5047906;28;20059;-74
2021/05/27 01:12:24;;;;;;;3.88;1.15;;;;;;;;;;5049209;28;20041;-76
2021/05/27 01:17:35;;;;;;;1.48;0.95;;;;;;;;;;5050954;28;20083;-74
2021/05/27 01:20:00;;;;;;;3.65;1.60;;;;;;;;;;5063519;28;20495;-76
2021/05/27 01:22:26;;;;;;;2.72;1.13;;;;;;;;;;5048599;28;20043;-74
2021/05/27 01:24:51;;;;;;;1.45;1.10;;;;;;;;;;5047561;28;20066;-75
2021/05/27 01:27:16;;;;;;;1.85;1.00;;;;;;;;;;5055518;28;20060;-75
2021/05/27 01:29:42;;;;;;;2.03;0.93;;;;;;;;;;5049379;28;20021;-75
2021/05/27 01:32:08;;;;;;;2.53;1.25;;;;;;;;;;5048871;28;20017;-74
2021/05/27 01:34:33;;;;;;;1.85;1.10;;;;;;;;;;5054830;28;20179;-74
2021/05/27 01:36:58;;;;;;;1.75;1.00;;;;;;;;;;5060239;28;20444;-75
2021/05/27 01:39:23;;;;;;;1.15;0.93;;;;;;;;;;5054510;28;20567;-75
2021/05/27 01:41:50;;;;;;;1.95;1.20;;;;;;;;;;5055587;28;20098;-74
2021/05/27 01:44:15;;;;;;;0.90;0.70;;;;;;;;;;5047374;28;20029;-73
2021/05/27 01:46:40;;;;;;;2.38;0.98;;;;;;;;;;5029781;28;20693;-75
2021/05/27 01:49:06;;;;;;;1.52;0.90;;;;;;;;;;5046152;28;20032;-74
2021/05/27 01:51:31;;;;;;;1.88;0.90;;;;;;;;;;5048327;28;20652;-75
2021/05/27 01:53:56;;;;;;;1.33;0.90;;;;;;;;;;5046079;28;20033;-75
2021/05/27 01:56:22;;;;;;;1.30;0.90;;;;;;;;;;5049204;28;20329;-76
2021/05/27 01:58:47;;;;;;;1.40;1.00;;;;;;;;;;5058751;28;20047;-74
2021/05/27 02:01:12;;;;;;;1.40;1.00;;;;;;;;;;5049694;28;20373;-74
2021/05/27 02:03:37;;;;;;;1.58;0.98;;;;;;;;;;5053405;28;20052;-74
2021/05/27 02:06:02;;;;;;;2.17;1.10;;;;;;;;;;5057837;28;20020;-74
2021/05/27 02:08:27;;;;;;;6.22;1.45;;;;;;;;;;5031181;28;20037;-74
2021/05/27 02:10:53;;;;;;;1.55;0.90;;;;;;;;;;5051684;28;20467;-79
2021/05/27 02:13:18;;;;;;;1.85;1.00;;;;;;;;;;5062576;28;20036;-74
2021/05/27 02:15:43;;;;;;;1.45;1.13;;;;;;;;;;5047492;28;20024;-76
2021/05/27 02:18:09;;;;;;;1.70;1.02;;;;;;;;;;5060961;28;20024;-74
2021/05/27 02:20:34;;;;;;;1.77;1.10;;;;;;;;;;5047677;28;20383;-76
2021/05/27 02:22:59;;;;;;;1.42;0.90;;;;;;;;;;5058405;28;20087;-75
2021/05/27 02:25:25;;;;;;;2.22;1.15;;;;;;;;;;5060040;28;20028;-75
2021/05/27 02:27:50;;;;;;;2.28;1.30;;;;;;;;;;5067104;28;20107;-75
2021/05/27 02:30:15;;;;;;;1.90;1.02;;;;;;;;;;5052829;28;20020;-76
2021/05/27 02:32:41;;;;;;;1.58;0.95;;;;;;;;;;5051473;28;20092;-76
2021/05/27 02:35:06;;;;;;;2.03;1.30;;;;;;;;;;5050947;28;20035;-77
2021/05/27 02:37:31;;;;;;;2.47;1.00;;;;;;;;;;5055055;28;20035;-75
2021/05/27 02:39:56;;;;;;;2.47;1.20;;;;;;;;;;5054414;28;20052;-76
2021/05/27 02:42:22;;;;;;;1.98;1.23;;;;;;;;;;5034219;28;20476;-75
2021/05/27 02:44:47;;;;;;;2.03;1.08;;;;;;;;;;5053982;28;20452;-75
2021/05/27 02:47:13;;;;;;;2.28;1.17;;;;;;;;;;5057000;28;20472;-75
2021/05/27 02:49:38;;;;;;;2.95;1.15;;;;;;;;;;5053538;28;20391;-76
2021/05/27 02:52:03;;;;;;;2.22;1.20;;;;;;;;;;5053697;28;20029;-75
2021/05/27 02:54:30;;;;;;;2.17;1.23;;;;;;;;;;5057260;28;20017;-75
2021/05/27 02:56:59;;;;;;;1.77;1.20;;;;;;;;;;5053462;28;20021;-75
2021/05/27 02:59:24;;;;;;;1.98;1.25;;;;;;;;;;5058404;28;20034;-75
2021/05/27 03:01:49;;;;;;;1.33;1.08;;;;;;;;;;5050823;28;20811;-75
2021/05/27 03:04:14;;;;;;;2.05;1.33;;;;;;;;;;5050293;28;20033;-75
2021/05/27 03:06:40;;;;;;;2.58;1.30;;;;;;;;;;5050457;28;20037;-76
2021/05/27 03:09:05;;;;;;;1.63;1.15;;;;;;;;;;5051272;28;20025;-74
2021/05/27 03:11:30;;;;;;;2.95;1.35;;;;;;;;;;5055391;28;20342;-74
2021/05/27 03:13:55;;;;;;;2.05;1.27;;;;;;;;;;5067327;28;20077;-76
2021/05/27 03:16:20;;;;;;;1.70;1.20;;;;;;;;;;5057314;28;20116;-76
2021/05/27 03:18:46;;;;;;;1.60;1.20;;;;;;;;;;5053689;28;20025;-75
2021/05/27 03:21:11;;;;;;;1.73;1.17;;;;;;;;;;5061771;28;20013;-74
2021/05/27 03:23:36;;;;;;;1.80;1.17;;;;;;;;;;5055072;28;20140;-75
2021/05/27 03:26:01;;;;;;;1.67;1.20;;;;;;;;;;5050592;28;20025;-75
2021/05/27 03:28:27;;;;;;;2.60;1.50;;;;;;;;;;5056663;28;20034;-75
2021/05/27 03:30:52;;;;;;;1.60;1.20;;;;;;;;;;5054305;28;20025;-75
2021/05/27 03:33:18;;;;;;;5.38;1.65;;;;;;;;;;5064917;28;20470;-74
2021/05/27 03:35:43;;;;;;;2.00;1.38;;;;;;;;;;5048806;28;20025;-75
2021/05/27 03:38:08;;;;;;;3.00;1.25;;;;;;;;;;5049087;28;20413;-74
2021/05/27 03:40:34;;;;;;;3.35;1.42;;;;;;;;;;5055122;28;20024;-75
2021/05/27 03:42:59;;;;;;;4.55;1.55;;;;;;;;;;5049927;28;20078;-75
2021/05/27 03:45:24;;;;;;;2.67;1.48;;;;;;;;;;5049625;28;20464;-73
2021/05/27 03:47:50;;;;;;;4.32;1.50;;;;;;;;;;5049533;28;20384;-74
2021/05/27 03:50:16;;;;;;;1.85;1.30;;;;;;;;;;5041385;28;20031;-74
2021/05/27 03:52:42;;;;;;;2.40;1.40;;;;;;;;;;5051045;28;20017;-74
2021/05/27 03:55:09;;;;;;;3.22;1.20;;;;;;;;;;5058547;28;20062;-75
2021/05/27 03:57:34;;;;;;;2.50;1.20;;;;;;;;;;5049681;28;20033;-75
2021/05/27 04:02:46;;;;;;;2.88;1.52;;;;;;;;;;5055481;28;20523;-76
2021/05/27 04:07:55;;;;;;;2.80;1.45;;;;;;;;;;5053821;28;21517;-75
2021/05/27 04:10:21;;;;;;;3.50;1.50;;;;;;;;;;5056834;28;20025;-74
2021/05/27 04:12:47;;;;;;;2.40;1.55;;;;;;;;;;5048628;28;20041;-76
2021/05/27 04:15:32;;;;;;;2.42;1.30;;;;;;;;;;5050373;28;20033;-76
2021/05/27 04:18:02;;;;;;;2.67;1.33;;;;;;;;;;5048786;28;20044;-75
2021/05/27 04:20:27;;;;;;;;;;;;;;;;;;5053359;28;20044;-74
2021/05/27 04:22:52;;;;;;;2.45;1.73;;;;;;;;;;5048954;28;19917;-75
2021/05/27 04:25:19;;;;;;;2.20;1.30;;;;;;;;;;5050520;28;20633;-75
2021/05/27 04:27:44;;;;;;;2.35;1.52;;;;;;;;;;5049763;28;20040;-75
2021/05/27 04:30:17;;;;;;;2.45;1.20;;;;;;;;;;5058296;28;20020;-75
2021/05/27 04:32:56;;;;;;;2.30;1.20;;;;;;;;;;5056711;28;20064;-74
2021/05/27 04:35:28;;;;;;;1.40;1.08;;;;;;;;;;5055875;28;20043;-75
2021/05/27 04:37:55;;;;;;;3.40;1.55;;;;;;;;;;5062860;28;20039;-75
2021/05/27 04:40:20;;;;;;;4.70;1.50;;;;;;;;;;5048452;28;20029;-74
2021/05/27 04:42:45;;;;;;;2.25;1.25;;;;;;;;;;5065086;28;20115;-76
2021/05/27 04:45:11;;;;;;;1.92;1.10;;;;;;;;;;5057015;28;20013;-75
2021/05/27 04:47:36;;;;;;;2.10;1.35;;;;;;;;;;5050160;28;20143;-74
2021/05/27 04:50:01;;;;;;;3.22;1.33;;;;;;;;;;5029448;28;20088;-74
2021/05/27 04:52:26;;;;;;;2.50;1.30;;;;;;;;;;5062846;28;20071;-74
2021/05/27 04:54:51;;;;;;;1.92;1.27;;;;;;;;;;5050361;28;20028;-75
2021/05/27 04:57:17;;;;;;;3.13;1.48;;;;;;;;;;5050554;28;20063;-74
2021/05/27 04:59:42;;;;;;;3.58;1.50;;;;;;;;;;5053523;28;20032;-75
2021/05/27 05:02:07;;;;;;;2.17;1.60;;;;;;;;;;5048307;28;20488;-76
2021/05/27 05:04:32;;;;;;;2.65;1.45;;;;;;;;;;5052296;28;20055;-75
2021/05/27 05:06:57;;;;;;;2.13;1.48;;;;;;;;;;5053542;28;20490;-75
2021/05/27 05:09:23;;;;;;;2.88;1.52;;;;;;;;;;5062665;28;20379;-74
2021/05/27 05:11:48;;;;;;;4.05;1.50;;;;;;;;;;5054252;28;20017;-75
2021/05/27 05:14:13;;;;;;;2.83;1.55;;;;;;;;;;5047533;28;20099;-74
2021/05/27 05:16:38;;;;;;;3.05;1.55;;;;;;;;;;5043867;28;20016;-74
2021/05/27 05:19:03;;;;;;;3.92;1.88;;;;;;;;;;5043465;28;20481;-73
2021/05/27 05:21:29;;;;;;;2.42;1.50;;;;;;;;;;5022516;28;20021;-75
2021/05/27 05:23:54;;;;;;;2.97;1.70;;;;;;;;;;5036806;28;20045;-74
2021/05/27 05:26:19;;;;;;;2.40;1.70;;;;;;;;;;5047984;28;20044;-75
2021/05/27 05:28:44;;;;;;;2.65;1.40;;;;;;;;;;5036458;28;20044;-74
2021/05/27 05:31:10;;;;;;;2.55;1.42;;;;;;;;;;5029859;28;20025;-76
2021/05/27 05:33:35;;;;;;;2.88;1.50;;;;;;;;;;5045156;28;20483;-74
2021/05/27 05:36:00;;;;;;;4.75;1.52;;;;;;;;;;5048272;28;20030;-75
2021/05/27 05:38:25;;;;;;;4.20;1.80;;;;;;;;;;5047986;28;20141;-74
2021/05/27 05:40:50;;;;;;;2.42;1.45;;;;;;;;;;5042343;28;20024;-74
2021/05/27 05:43:16;;;;;;;2.20;1.35;;;;;;;;;;5047559;28;20045;-75
2021/05/27 05:45:41;;;;;;;2.10;1.27;;;;;;;;;;5039208;28;20383;-75
2021/05/27 05:48:07;;;;;;;2.95;1.67;;;;;;;;;;5044010;28;20024;-75
2021/05/27 05:50:45;;;;;;;2.97;1.23;;;;;;;;;;5044553;28;20380;-74
2021/05/27 05:53:11;;;;;;;1.92;1.30;;;;;;;;;;5051179;28;20021;-74
2021/05/27 05:55:37;;;;;;;2.45;1.40;;;;;;;;;;5048827;28;20044;-74
2021/05/27 05:58:03;;;;;;;2.05;1.33;;;;;;;;;;5047480;28;20028;-75
2021/05/27 06:00:28;;;;;;;2.05;1.20;;;;;;;;;;5047480;28;20044;-75
2021/05/27 06:02:54;;;;;;;2.05;1.17;;;;;;;;;;5065035;28;20118;-75
2021/05/27 06:05:19;;;;;;;2.90;1.20;;;;;;;;;;5051101;28;20021;-74
2021/05/27 06:07:44;;;;;;;2.67;1.45;;;;;;;;;;5054347;28;20491;-75
2021/05/27 06:10:10;;;;;;;1.70;1.02;;;;;;;;;;5052958;28;20049;-74
2021/05/27 06:12:35;;;;;;;4.38;1.10;;;;;;;;;;5050698;28;20029;-75
2021/05/27 06:15:00;;;;;;;2.08;1.20;;;;;;;;;;5061598;28;20027;-74
2021/05/27 06:17:26;;;;;;;2.50;1.30;;;;;;;;;;5056577;28;20036;-74
2021/05/27 06:19:51;;;;;;;1.08;0.90;;;;;;;;;;5064841;28;20027;-74
2021/05/27 06:22:16;;;;;;;2.83;1.40;;;;;;;;;;5064631;28;20128;-75
2021/05/27 06:24:41;;;;;;;1.63;1.10;;;;;;;;;;5061074;28;20120;-77
2021/05/27 06:27:07;;;;;;;5.15;1.30;;;;;;;;;;5052613;28;20436;-75
2021/05/27 06:29:32;;;;;;;2.70;1.17;;;;;;;;;;5053302;28;20825;-75
2021/05/27 06:31:57;;;;;;;1.67;0.93;;;;;;;;;;5047752;28;20034;-76
2021/05/27 06:34:22;;;;;;;1.55;1.10;;;;;;;;;;5045278;28;20037;-76
2021/05/27 06:36:48;;;;;;;2.63;1.00;;;;;;;;;;5030048;28;20052;-76
2021/05/27 06:39:13;;;;;;;2.03;1.10;;;;;;;;;;5051294;28;20036;-76
2021/05/27 06:41:38;;;;;;;3.10;1.23;;;;;;;;;;5051791;28;20036;-76
2021/05/27 06:44:03;;;;;;;2.00;0.90;;;;;;;;;;5060626;28;20206;-75
2021/05/27 06:46:29;;;;;;;2.42;1.05;;;;;;;;;;5053642;28;20017;-75
2021/05/27 06:48:55;;;;;;;1.58;0.98;;;;;;;;;;5056369;28;20016;-75
2021/05/27 06:51:20;;;;;;;2.30;1.08;;;;;;;;;;5053644;28;20029;-76
2021/05/27 06:53:46;;;;;;;1.67;1.05;;;;;;;;;;5020830;28;20043;-74
2021/05/27 06:56:11;;;;;;;1.60;1.08;;;;;;;;;;5052827;28;20017;-75
2021/05/27 06:58:36;;;;;;;2.25;0.80;;;;;;;;;;5058101;28;20387;-76
2021/05/27 07:01:01;;;;;;;2.78;1.10;;;;;;;;;;5052298;28;20025;-75
2021/05/27 07:03:28;;;;;;;1.20;1.00;;;;;;;;;;5053465;28;20059;-76
2021/05/27 07:05:53;;;;;;;4.40;0.82;;;;;;;;;;5052465;28;20021;-75
2021/05/27 07:08:18;;;;;;;1.08;0.82;;;;;;;;;;5056178;28;20031;-75
2021/05/27 07:10:44;;;;;;;1.05;0.90;;;;;;;;;;5057983;28;20096;-76
2021/05/27 07:13:10;;;;;;;0.80;0.70;;;;;;;;;;5063076;28;20020;-76
2021/05/27 07:15:36;;;;;;;2.53;1.00;;;;;;;;;;5058274;28;20031;-76
2021/05/27 07:18:02;;;;;;;1.35;0.80;;;;;;;;;;5057784;28;20099;-75
2021/05/27 07:20:27;;;;;;;1.20;0.88;;;;;;;;;;5054329;28;20484;-76
2021/05/27 07:22:53;;;;;;;1.52;0.90;;;;;;;;;;5055516;28;20037;-76
2021/05/27 07:25:20;;;;;;;2.60;0.95;;;;;;;;;;5050304;28;20784;-71
2021/05/27 07:27:47;;;;;;;1.52;0.93;;;;;;;;;;5048618;28;20051;-72
2021/05/27 07:30:13;;;;;;;1.92;1.00;;;;;;;;;;5048632;28;20112;-73
2021/05/27 07:32:38;;;;;;;1.45;1.00;;;;;;;;;;5052758;28;20179;-73
2021/05/27 07:35:04;;;;;;;1.77;0.73;;;;;;;;;;5051401;28;20017;-72
2021/05/27 07:37:29;;;;;;;3.30;0.90;;;;;;;;;;5033897;28;20543;-71
2021/05/27 07:39:55;;;;;;;1.35;0.95;;;;;;;;;;5055864;28;20112;-73
2021/05/27 07:42:20;;;;;;;1.23;1.00;;;;;;;;;;5062881;28;20035;-72
2021/05/27 07:44:45;;;;;;;1.35;0.85;;;;;;;;;;5051039;28;20021;-72
2021/05/27 07:47:10;;;;;;;2.22;1.00;;;;;;;;;;5048616;28;20029;-71
2021/05/27 07:49:35;;;;;;;1.98;1.02;;;;;;;;;;5031493;28;20095;-73
2021/05/27 07:52:01;;;;;;;1.58;1.00;;;;;;;;;;5050740;28;20061;-72
2021/05/27 07:54:27;;;;;;;1.60;1.10;;;;;;;;;;5050576;28;20074;-73
2021/05/27 07:56:53;;;;;;;2.08;0.98;;;;;;;;;;5050195;28;20021;-72
2021/05/27 07:59:18;;;;;;;2.80;1.00;;;;;;;;;;5032545;28;20547;-71
2021/05/27 08:01:43;;;;;;;1.02;0.73;;;;;;;;;;5050547;28;20124;-72
2021/05/27 08:04:08;;;;;;;1.05;0.93;;;;;;;;;;5054432;28;20115;-70
2021/05/27 08:06:34;;;;;;;1.20;0.98;;;;;;;;;;5049980;28;20067;-70
2021/05/27 08:08:59;;;;;;;1.30;0.90;;;;;;;;;;5062824;28;20033;-71
2021/05/27 08:11:24;;;;;;;1.27;0.90;;;;;;;;;;5048987;28;20021;-71
2021/05/27 08:13:50;;;;;;;1.75;1.08;;;;;;;;;;5052792;28;20029;-72
2021/05/27 08:16:15;;;;;;;1.10;0.77;;;;;;;;;;5053768;28;20031;-71
2021/05/27 08:18:40;;;;;;;1.15;0.95;;;;;;;;;;5066162;28;20036;-72
2021/05/27 08:21:06;;;;;;;1.88;1.00;;;;;;;;;;5049308;28;20079;-72
2021/05/27 08:23:32;;;;;;;1.40;0.70;;;;;;;;;;5046886;28;20083;-72
2021/05/27 08:25:57;;;;;;;1.75;1.08;;;;;;;;;;5058441;28;20285;-71
2021/05/27 08:28:22;;;;;;;1.38;0.80;;;;;;;;;;5049401;28;20036;-71
2021/05/27 08:30:48;;;;;;;1.83;1.00;;;;;;;;;;5036907;28;20480;-71
2021/05/27 08:33:13;;;;;;;1.00;0.90;;;;;;;;;;5055714;28;20169;-71
2021/05/27 08:35:38;;;;;;;4.00;0.90;;;;;;;;;;5049082;28;20017;-72
2021/05/27 08:38:03;;;;;;;1.33;0.90;;;;;;;;;;5050291;28;20491;-71
2021/05/27 08:40:28;;;;;;;2.38;0.82;;;;;;;;;;5049239;28;20110;-71
2021/05/27 08:42:56;;;;;;;1.02;0.90;;;;;;;;;;5050426;28;20063;-71
2021/05/27 08:45:25;;;;;;;0.75;0.70;;;;;;;;;;5049381;28;20096;-71
2021/05/27 08:47:50;;;;;;;2.17;0.90;;;;;;;;;;5049136;28;20032;-71
2021/05/27 08:50:15;;;;;;;1.20;0.85;;;;;;;;;;5054208;28;20028;-72
2021/05/27 08:52:41;;;;;;;2.58;1.30;;;;;;;;;;5054960;28;20044;-71
2021/05/27 08:55:06;;;;;;;1.67;0.90;;;;;;;;;;5052632;28;20379;-71
2021/05/27 08:57:32;;;;;;;2.13;1.02;;;;;;;;;;5064979;28;20025;-73
2021/05/27 08:59:57;;;;;;;1.63;1.02;;;;;;;;;;5054738;28;20040;-71
2021/05/27 09:02:22;;;;;;;2.80;1.25;;;;;;;;;;5058799;28;20439;-71
2021/05/27 09:04:47;;;;;;;2.80;1.02;;;;;;;;;;5054880;28;20033;-71
2021/05/27 09:07:12;;;;;;;1.52;0.90;;;;;;;;;;5052902;28;20112;-71
2021/05/27 09:09:58;;;;;;;2.08;1.45;;;;;;;;;;5063254;28;20020;-71
2021/05/27 09:12:26;;;;;;;2.08;0.90;;;;;;;;;;5061741;28;20383;-72
2021/05/27 09:14:51;;;;;;;2.15;0.90;;;;;;;;;;5068514;28;20042;-72
2021/05/27 09:17:16;;;;;;;2.65;1.00;;;;;;;;;;5052497;28;20441;-71
2021/05/27 09:19:41;;;;;;;4.47;1.27;;;;;;;;;;5048624;28;20102;-72
2021/05/27 09:22:19;;;;;;;3.65;1.20;;;;;;;;;;5048657;28;20047;-73
2021/05/27 09:24:45;;;;;;;1.27;0.90;;;;;;;;;;5044686;28;20630;-72
2021/05/27 09:27:10;;;;;;;2.45;0.88;;;;;;;;;;5057174;28;20116;-72
2021/05/27 09:29:43;;;;;;;1.75;1.15;;;;;;;;;;5060654;28;20105;-71
2021/05/27 09:32:08;;;;;;;1.90;1.00;;;;;;;;;;5061136;28;20025;-71
2021/05/27 09:34:47;;;;;;;2.58;1.10;;;;;;;;;;5062205;28;20016;-71
2021/05/27 09:37:19;;;;;;;1.50;0.90;;;;;;;;;;5051640;28;20059;-70
2021/05/27 09:39:46;;;;;;;2.20;1.05;;;;;;;;;;5061127;28;20021;-73
2021/05/27 09:42:12;;;;;;;2.47;0.95;;;;;;;;;;5048021;28;20029;-72
2021/05/27 09:44:37;;;;;;;2.90;1.20;;;;;;;;;;5058324;28;20756;-72
2021/05/27 09:47:04;;;;;;;1.52;0.90;;;;;;;;;;5058431;28;20021;-72
2021/05/27 09:49:31;;;;;;;2.20;1.15;;;;;;;;;;5056918;28;20017;-72
2021/05/27 09:51:57;;;;;;;1.48;0.90;;;;;;;;;;5050604;28;20021;-72
2021/05/27 09:54:23;;;;;;;1.65;1.05;;;;;;;;;;5055423;28;20048;-72
2021/05/27 09:56:49;;;;;;;4.18;1.20;;;;;;;;;;5048607;28;20115;-72
2021/05/27 09:59:15;;;;;;;2.10;0.95;;;;;;;;;;5048126;28;20013;-71
2021/05/27 10:01:48;;;;;;;3.85;1.17;;;;;;;;;;5055237;28;20041;-72
2021/05/27 10:04:14;;;;;;;2.90;1.10;;;;;;;;;;5058934;28;20032;-72
2021/05/27 10:06:40;;;;;;;3.85;1.77;;;;;;;;;;5051121;28;20036;-72
2021/05/27 10:09:08;;;;;;;2.88;1.30;;;;;;;;;;5048433;28;20392;-72
2021/05/27 10:11:33;;;;;;;4.85;1.50;;;;;;;;;;5061590;28;20025;-72
2021/05/27 10:13:59;;;;;;;2.95;1.13;;;;;;;;;;5066734;28;20032;-73
2021/05/27 10:16:25;;;;;;;3.60;1.15;;;;;;;;;;5032982;28;20025;-72
2021/05/27 10:18:51;;;;;;;2.22;1.20;;;;;;;;;;5047796;28;20429;-71
2021/05/27 10:21:17;;;;;;;5.13;1.20;;;;;;;;;;5040682;28;20538;-72
2021/05/27 10:23:42;;;;;;;1.13;1.00;;;;;;;;;;5048126;28;20037;-71
2021/05/27 10:26:08;;;;;;;1.58;1.08;;;;;;;;;;5057454;28;20488;-71
2021/05/27 10:28:33;;;;;;;1.08;0.70;;;;;;;;;;5032123;28;20060;-71
2021/05/27 10:30:59;;;;;;;2.17;1.20;;;;;;;;;;5047875;28;20021;-70
2021/05/27 10:33:25;;;;;;;1.55;1.10;;;;;;;;;;5059179;28;20060;-72
2021/05/27 10:35:54;;;;;;;1.55;1.15;;;;;;;;;;5047604;28;20068;-71
2021/05/27 10:38:42;;;;;;;1.60;1.20;;;;;;;;;;5053021;28;20032;-73
2021/05/27 10:41:16;;;;;;;3.92;1.00;;;;;;;;;;5049086;28;20041;-71
2021/05/27 10:43:59;;;;;;;2.08;1.05;;;;;;;;;;5051143;28;20051;-72
2021/05/27 10:46:25;;;;;;;1.52;1.00;;;;;;;;;;5051304;28;20048;-72
2021/05/27 10:48:50;;;;;;;2.78;1.25;;;;;;;;;;5060396;28;20110;-71
2021/05/27 10:51:27;;;;;;;2.47;1.00;;;;;;;;;;5065150;28;20040;-72
2021/05/27 10:53:53;;;;;;;1.52;1.00;;;;;;;;;;5056769;28;20024;-70
2021/05/27 10:56:18;;;;;;;2.92;1.00;;;;;;;;;;5051400;28;20020;-72
2021/05/27 10:58:43;;;;;;;1.38;0.85;;;;;;;;;;5054610;28;20463;-72
2021/05/27 11:01:09;;;;;;;1.85;1.00;;;;;;;;;;5052946;28;20025;-72
2021/05/27 11:03:42;;;;;;;2.13;1.05;;;;;;;;;;5070036;28;20299;-71
2021/05/27 11:06:24;;;;;;;1.58;0.95;;;;;;;;;;5042378;28;20025;-71
2021/05/27 11:09:10;;;;;;;2.13;0.80;;;;;;;;;;5050780;28;20090;-71
2021/05/27 11:11:44;;;;;;;1.60;0.80;;;;;;;;;;5051067;28;20028;-69
2021/05/27 11:14:16;;;;;;;1.02;0.70;;;;;;;;;;5050508;28;20394;-70
2021/05/27 11:17:00;;;;;;;2.15;0.90;;;;;;;;;;5050719;28;20139;-71
2021/05/27 11:19:47;;;;;;;1.95;1.00;;;;;;;;;;5058962;28;20032;-71
2021/05/27 11:25:15;;;;;;;2.35;0.90;;;;;;;;;;5051443;28;20401;-71
2021/05/27 11:27:42;;;;;;;1.38;0.80;;;;;;;;;;5051011;28;20025;-71
2021/05/27 11:30:17;;;;;;;2.13;1.00;;;;;;;;;;5056956;28;20017;-71
2021/05/27 11:32:47;;;;;;;1.60;1.00;;;;;;;;;;5054684;28;20075;-71
2021/05/27 11:35:13;;;;;;;1.10;0.90;;;;;;;;;;5034687;28;20059;-71
2021/05/27 11:37:40;;;;;;;1.58;0.80;;;;;;;;;;5057493;28;20390;-71
2021/05/27 11:40:06;;;;;;;1.23;1.02;;;;;;;;;;5055312;28;20020;-71
2021/05/27 11:42:32;;;;;;;0.95;0.70;;;;;;;;;;5063306;28;20103;-71
2021/05/27 11:44:59;;;;;;;0.82;0.80;;;;;;;;;;5056152;28;20459;-72
2021/05/27 11:47:25;;;;;;;0.82;0.77;;;;;;;;;;5061816;28;20056;-69
2021/05/27 11:50:19;;;;;;;2.25;0.65;;;;;;;;;;5049198;28;20057;-71
2021/05/27 11:52:44;;;;;;;0.93;0.70;;;;;;;;;;4987357;28;20453;-70
2021/05/27 11:55:13;;;;;;;2.25;0.70;;;;;;;;;;4989800;28;20030;-70
2021/05/27 11:57:48;;;;;;;1.42;0.93;;;;;;;;;;4993847;28;20413;-69
2021/05/27 12:00:14;;;;;;;1.10;0.80;;;;;;;;;;5004974;28;20140;-72
2021/05/27 12:02:50;;;;;;;1.88;0.70;;;;;;;;;;5006778;28;20117;-74
2021/05/27 12:05:30;;;;;;;1.88;0.90;;;;;;;;;;5005307;28;20092;-71
2021/05/27 12:07:55;;;;;;;;;;;;;;;;;;4998113;28;20061;-71
2021/05/27 12:10:20;;;;;;;1.30;0.90;;;;;;;;;;5003569;28;19941;-73
2021/05/27 12:12:45;;;;;;;0.70;0.70;;;;;;;;;;4993601;28;20033;-72
2021/05/27 12:15:11;;;;;;;2.20;1.10;;;;;;;;;;4996309;28;20457;-71
2021/05/27 12:17:38;;;;;;;1.23;0.90;;;;;;;;;;5003530;28;20034;-71
2021/05/27 12:20:08;;;;;;;1.95;1.00;;;;;;;;;;4989656;28;20476;-72
2021/05/27 12:22:50;;;;;;;3.40;1.10;;;;;;;;;;4986149;28;20029;-71
2021/05/27 12:25:16;;;;;;;1.60;1.08;;;;;;;;;;5002533;28;20038;-71
2021/05/27 12:27:43;;;;;;;1.90;1.00;;;;;;;;;;4990609;28;20018;-72
2021/05/27 12:30:09;;;;;;;2.97;1.10;;;;;;;;;;5049728;28;20033;-71
2021/05/27 12:32:38;;;;;;;2.45;0.95;;;;;;;;;;5062070;28;20059;-72
2021/05/27 12:35:03;;;;;;;1.20;0.80;;;;;;;;;;5031069;28;20054;-73
2021/05/27 12:37:39;;;;;;;0.98;0.60;;;;;;;;;;5031140;28;20025;-71
2021/05/27 12:40:07;;;;;;;1.15;0.60;;;;;;;;;;5049439;28;20104;-72
2021/05/27 12:42:36;;;;;;;2.70;0.88;;;;;;;;;;5048991;28;20017;-72
2021/05/27 12:45:02;;;;;;;1.33;0.70;;;;;;;;;;5059031;28;20123;-71
2021/05/27 12:47:27;;;;;;;0.80;0.65;;;;;;;;;;5056144;28;20096;-71
2021/05/27 12:49:53;;;;;;;1.33;0.77;;;;;;;;;;5052269;28;20020;-72
2021/05/27 12:52:36;;;;;;;1.13;0.90;;;;;;;;;;5049639;28;20076;-73
2021/05/27 12:55:03;;;;;;;0.90;0.77;;;;;;;;;;5055936;28;20017;-72
2021/05/27 12:57:28;;;;;;;2.90;0.88;;;;;;;;;;5031305;28;20544;-72
2021/05/27 12:59:57;;;;;;;2.25;0.80;;;;;;;;;;5031329;28;20025;-71
2021/05/27 13:02:25;;;;;;;0.70;0.50;;;;;;;;;;5049527;28;20068;-73
2021/05/27 13:04:51;;;;;;;1.15;0.70;;;;;;;;;;5067454;28;20383;-72
2021/05/27 13:07:17;;;;;;;2.50;0.75;;;;;;;;;;5050422;28;20029;-72
2021/05/27 13:09:54;;;;;;;2.50;0.88;;;;;;;;;;5066911;28;20025;-73
2021/05/27 13:12:20;;;;;;;1.17;0.70;;;;;;;;;;5068765;28;20127;-71
2021/05/27 13:14:59;;;;;;;0.95;0.75;;;;;;;;;;5068489;28;20107;-73
2021/05/27 13:17:25;;;;;;;1.48;0.60;;;;;;;;;;5055225;28;20021;-72
2021/05/27 13:19:55;;;;;;;1.35;0.80;;;;;;;;;;5048834;28;20033;-72
2021/05/27 13:22:22;;;;;;;0.88;0.60;;;;;;;;;;5042636;28;20025;-73
2021/05/27 13:24:56;;;;;;;0.93;0.60;;;;;;;;;;5062311;28;20476;-71
2021/05/27 13:29:54;;;;;;;1.52;0.93;;;;;;;;;;5049693;28;20032;-72
2021/05/27 13:32:20;;;;;;;3.65;0.75;;;;;;;;;;5056062;28;20555;-73
2021/05/27 13:34:46;;;;;;;1.15;0.63;;;;;;;;;;5054779;28;20021;-73
2021/05/27 13:37:11;;;;;;;1.48;0.85;;;;;;;;;;5062136;28;20411;-72
2021/05/27 13:39:36;;;;;;;0.95;0.70;;;;;;;;;;5056126;28;20365;-72
2021/05/27 13:42:02;;;;;;;2.13;0.80;;;;;;;;;;5061894;28;20021;-72
2021/05/27 13:44:27;;;;;;;3.40;1.00;;;;;;;;;;5049279;28;20033;-72
2021/05/27 13:46:52;;;;;;;1.65;0.88;;;;;;;;;;5054185;28;20456;-72
2021/05/27 13:49:18;;;;;;;1.02;0.80;;;;;;;;;;5063941;28;20021;-72
2021/05/27 13:51:50;;;;;;;1.27;0.73;;;;;;;;;;5060883;28;20024;-72
2021/05/27 13:54:16;;;;;;;1.42;0.90;;;;;;;;;;5048573;28;20455;-72
2021/05/27 13:56:41;;;;;;;1.58;1.00;;;;;;;;;;5048874;28;20124;-73
2021/05/27 13:59:07;;;;;;;1.15;0.90;;;;;;;;;;5053581;28;20486;-72
2021/05/27 14:01:32;;;;;;;2.22;1.45;;;;;;;;;;5063103;28;20029;-73
2021/05/27 14:03:58;;;;;;;1.38;0.70;;;;;;;;;;5059893;28;20037;-72
2021/05/27 14:06:23;;;;;;;1.13;0.80;;;;;;;;;;5062535;28;20021;-74
2021/05/27 14:08:48;;;;;;;1.20;0.85;;;;;;;;;;5040197;28;20431;-75
2021/05/27 14:11:13;;;;;;;1.92;0.95;;;;;;;;;;5059742;28;20430;-75
2021/05/27 14:13:39;;;;;;;1.08;0.75;;;;;;;;;;5060558;28;20110;-74
2021/05/27 14:16:04;;;;;;;1.42;0.80;;;;;;;;;;5067785;28;20063;-74
2021/05/27 14:18:29;;;;;;;1.50;0.70;;;;;;;;;;5057443;28;20024;-76
2021/05/27 14:20:56;;;;;;;1.38;0.90;;;;;;;;;;5071841;28;20941;-75
2021/05/27 14:23:21;;;;;;;1.70;0.88;;;;;;;;;;5055805;28;20043;-76
2021/05/27 14:25:46;;;;;;;1.52;0.80;;;;;;;;;;5052001;28;20021;-75
2021/05/27 14:28:11;;;;;;;1.27;0.80;;;;;;;;;;5052405;28;20024;-74
2021/05/27 14:30:37;;;;;;;1.35;0.90;;;;;;;;;;5052062;28;20082;-75
2021/05/27 14:33:04;;;;;;;1.02;0.65;;;;;;;;;;5058320;28;20052;-76
2021/05/27 14:35:29;;;;;;;1.10;0.70;;;;;;;;;;5059078;28;20071;-75
2021/05/27 14:37:54;;;;;;;1.88;0.80;;;;;;;;;;5062071;28;21407;-75
2021/05/27 14:40:19;;;;;;;2.30;1.13;;;;;;;;;;5053496;28;20084;-75
2021/05/27 14:42:44;;;;;;;1.63;1.00;;;;;;;;;;5033357;28;20295;-76
2021/05/27 14:45:10;;;;;;;1.15;0.95;;;;;;;;;;5051744;28;20040;-75
2021/05/27 14:47:35;;;;;;;1.17;0.80;;;;;;;;;;5057985;28;20103;-74
2021/05/27 14:50:01;;;;;;;1.27;0.70;;;;;;;;;;5061417;28;20020;-75
2021/05/27 14:52:26;;;;;;;2.38;1.48;;;;;;;;;;5066637;28;20040;-73
2021/05/27 14:54:51;;;;;;;1.65;0.70;;;;;;;;;;5053343;28;20048;-75